createdAt,value
2022-09-20T00:00:31.246Z,11.10
2022-09-20T00:03:20.420Z,11.00
2022-09-20T00:06:12.446Z,11.10
2022-09-20T00:09:02.028Z,11.10
2022-09-20T00:11:52.932Z,11.10
2022-09-20T00:14:41.888Z,11.10
2022-09-20T00:17:29.928Z,11.10
2022-09-20T00:20:18.177Z,11.10
2022-09-20T00:23:06.934Z,11.00
2022-09-20T00:25:59.480Z,11.00
2022-09-20T00:28:49.362Z,11.00
2022-09-20T00:31:40.889Z,10.90
2022-09-20T00:34:42.752Z,10.90
2022-09-20T00:37:29.969Z,10.90
2022-09-20T00:40:20.002Z,10.90
2022-09-20T00:43:08.992Z,10.90
2022-09-20T00:45:59.740Z,10.80
2022-09-20T00:48:49.195Z,10.90
2022-09-20T00:51:41.940Z,10.90
2022-09-20T00:54:32.746Z,10.90
2022-09-20T00:57:21.400Z,10.90
2022-09-20T01:00:11.997Z,10.80
2022-09-20T01:03:06.797Z,10.80
2022-09-20T01:05:57.727Z,10.80
2022-09-20T01:08:51.392Z,10.80
2022-09-20T01:11:41.363Z,10.90
2022-09-20T01:14:30.538Z,10.80
2022-09-20T01:17:21.438Z,10.90
2022-09-20T01:20:21.780Z,10.90
2022-09-20T01:23:28.028Z,10.90
2022-09-20T01:26:44.028Z,10.90
2022-09-20T01:29:53.569Z,10.80
2022-09-20T01:32:55.867Z,10.80
2022-09-20T01:35:50.601Z,10.90
2022-09-20T01:38:48.410Z,10.80
2022-09-20T01:41:52.135Z,10.80
2022-09-20T01:44:52.341Z,10.80
2022-09-20T01:47:51.443Z,10.80
2022-09-20T01:51:06.511Z,10.80
2022-09-20T01:54:22.848Z,10.70
2022-09-20T01:57:34.950Z,10.70
2022-09-20T02:00:32.512Z,10.70
2022-09-20T02:03:55.136Z,10.70
2022-09-20T02:06:47.070Z,10.70
2022-09-20T02:10:05.999Z,10.70
2022-09-20T02:12:55.504Z,10.70
2022-09-20T02:16:18.291Z,10.70
2022-09-20T02:19:34.629Z,10.70
2022-09-20T02:22:43.901Z,10.60
2022-09-20T02:25:57.235Z,10.70
2022-09-20T02:29:05.175Z,10.70
2022-09-20T02:32:12.828Z,10.70
2022-09-20T02:35:24.641Z,10.60
2022-09-20T02:38:29.533Z,10.60
2022-09-20T02:41:50.698Z,10.60
2022-09-20T02:44:46.247Z,10.60
2022-09-20T02:47:46.396Z,10.60
2022-09-20T02:50:48.431Z,10.60
2022-09-20T02:53:50.673Z,10.60
2022-09-20T02:56:57.239Z,10.60
2022-09-20T02:59:58.383Z,10.60
2022-09-20T03:03:07.012Z,10.60
2022-09-20T03:06:06.229Z,10.60
2022-09-20T03:09:12.064Z,10.60
2022-09-20T03:12:18.943Z,10.60
2022-09-20T03:15:23.083Z,10.60
2022-09-20T03:18:30.909Z,10.60
2022-09-20T03:21:37.446Z,10.60
2022-09-20T03:24:44.346Z,10.60
2022-09-20T03:27:48.872Z,10.60
2022-09-20T03:30:53.676Z,10.60
2022-09-20T03:34:01.284Z,10.60
2022-09-20T03:37:07.655Z,10.60
2022-09-20T03:40:27.939Z,10.50
2022-09-20T03:43:23.458Z,10.60
2022-09-20T03:46:21.175Z,10.60
2022-09-20T03:49:44.723Z,10.60
2022-09-20T03:52:53.453Z,10.60
2022-09-20T03:56:16.790Z,10.60
2022-09-20T03:59:07.659Z,10.60
2022-09-20T04:02:18.249Z,10.60
2022-09-20T04:05:16.262Z,10.60
2022-09-20T04:08:22.295Z,10.60
2022-09-20T04:11:24.682Z,10.50
2022-09-20T04:14:22.857Z,10.50
2022-09-20T04:17:29.689Z,10.50
2022-09-20T04:20:26.495Z,10.50
2022-09-20T04:23:32.033Z,10.50
2022-09-20T04:26:33.412Z,10.50
2022-09-20T04:29:35.657Z,10.50
2022-09-20T04:32:33.603Z,10.50
2022-09-20T04:35:54.130Z,10.50
2022-09-20T04:38:50.156Z,10.50
2022-09-20T04:42:24.475Z,10.40
2022-09-20T04:45:46.702Z,10.50
2022-09-20T04:48:43.250Z,10.50
2022-09-20T04:51:59.676Z,10.40
2022-09-20T04:54:59.205Z,10.50
2022-09-20T04:58:18.250Z,10.50
2022-09-20T05:01:42.229Z,10.50
2022-09-20T05:04:50.657Z,10.40
2022-09-20T05:08:08.765Z,10.40
2022-09-20T05:11:32.153Z,10.40
2022-09-20T05:14:28.573Z,10.40
2022-09-20T05:17:34.357Z,10.40
2022-09-20T05:20:58.394Z,10.40
2022-09-20T05:24:07.524Z,10.40
2022-09-20T05:27:25.549Z,10.40
2022-09-20T05:30:28.319Z,10.40
2022-09-20T05:33:27.295Z,10.40
2022-09-20T05:36:25.155Z,10.40
2022-09-20T05:39:31.146Z,10.40
2022-09-20T05:42:23.556Z,10.40
2022-09-20T05:45:30.664Z,10.40
2022-09-20T05:48:34.147Z,10.40
2022-09-20T05:51:38.268Z,10.40
2022-09-20T05:54:37.886Z,10.40
2022-09-20T05:57:42.197Z,10.40
2022-09-20T06:00:37.606Z,10.50
2022-09-20T06:03:38.248Z,10.50
2022-09-20T06:06:33.348Z,10.50
2022-09-20T06:09:37.971Z,10.60
2022-09-20T06:12:44.353Z,10.60
2022-09-20T06:15:40.684Z,10.60
2022-09-20T06:18:36.501Z,10.60
2022-09-20T06:21:38.370Z,10.60
2022-09-20T06:24:35.830Z,10.60
2022-09-20T06:27:30.521Z,10.60
2022-09-20T06:30:23.129Z,10.70
2022-09-20T06:33:18.172Z,10.70
2022-09-20T06:36:27.822Z,10.70
2022-09-20T06:39:41.975Z,10.70
2022-09-20T06:42:28.067Z,10.70
2022-09-20T06:45:14.979Z,10.60
2022-09-20T06:48:01.997Z,10.70
2022-09-20T06:50:50.346Z,10.70
2022-09-20T06:53:43.506Z,10.80
2022-09-20T06:56:37.171Z,10.80
2022-09-20T06:59:26.385Z,10.80
2022-09-20T07:02:14.861Z,10.90
2022-09-20T07:05:04.060Z,10.90
2022-09-20T07:07:52.726Z,11.00
2022-09-20T07:10:43.932Z,11.00
2022-09-20T07:13:32.072Z,11.10
2022-09-20T07:16:20.667Z,11.10
2022-09-20T07:19:09.079Z,11.10
2022-09-20T07:21:57.623Z,11.20
2022-09-20T07:24:46.990Z,11.20
2022-09-20T07:27:36.568Z,11.30
2022-09-20T07:30:25.632Z,11.30
2022-09-20T07:33:17.663Z,11.30
2022-09-20T07:36:06.519Z,11.40
2022-09-20T07:38:55.885Z,11.40
2022-09-20T07:41:51.715Z,11.40
2022-09-20T07:44:42.621Z,11.40
2022-09-20T07:47:36.092Z,11.40
2022-09-20T07:50:25.053Z,11.50
2022-09-20T07:53:13.507Z,11.50
2022-09-20T07:56:04.406Z,11.50
2022-09-20T07:58:53.059Z,11.60
2022-09-20T08:01:44.396Z,11.60
2022-09-20T08:04:33.257Z,11.60
2022-09-20T08:07:22.721Z,11.70
2022-09-20T08:10:11.775Z,11.60
2022-09-20T08:16:14.412Z,11.70
2022-09-20T08:19:05.603Z,11.70
2022-09-20T08:21:55.167Z,11.80
2022-09-20T08:24:44.947Z,11.90
2022-09-20T08:27:33.908Z,11.90
2022-09-20T08:30:27.525Z,11.90
2022-09-20T08:33:16.130Z,12.00
2022-09-20T08:36:06.829Z,12.00
2022-09-20T08:42:15.382Z,12.10
2022-09-20T08:45:07.920Z,12.20
2022-09-20T08:48:00.078Z,12.30
2022-09-20T08:50:49.025Z,12.30
2022-09-20T08:53:49.244Z,12.20
2022-09-20T08:56:39.645Z,12.30
2022-09-20T08:59:28.295Z,12.30
2022-09-20T09:02:19.558Z,12.50
2022-09-20T09:05:32.124Z,12.50
2022-09-20T09:08:23.207Z,12.60
2022-09-20T09:11:17.113Z,12.70
2022-09-20T09:14:29.008Z,12.70
2022-09-20T09:17:20.227Z,12.80
2022-09-20T09:20:22.187Z,12.90
2022-09-20T09:23:25.905Z,12.90
2022-09-20T09:26:20.283Z,12.90
2022-09-20T09:29:18.358Z,12.80
2022-09-20T09:32:24.503Z,12.90
2022-09-20T09:35:27.826Z,13.00
2022-09-20T09:38:22.430Z,13.00
2022-09-20T09:41:27.054Z,13.10
2022-09-20T09:44:26.045Z,13.20
2022-09-20T09:47:29.346Z,13.30
2022-09-20T09:50:26.085Z,13.40
2022-09-20T09:53:17.823Z,13.40
2022-09-20T09:56:25.793Z,13.50
2022-09-20T09:59:27.686Z,13.50
2022-09-20T10:02:32.567Z,13.50
2022-09-20T10:05:26.804Z,13.50
2022-09-20T10:08:24.063Z,13.50
2022-09-20T10:11:24.994Z,13.50
2022-09-20T10:14:30.249Z,13.70
2022-09-20T10:17:34.569Z,13.70
2022-09-20T10:20:34.276Z,13.80
2022-09-20T10:24:02.052Z,13.90
2022-09-20T10:27:08.630Z,13.90
2022-09-20T10:30:06.703Z,13.90
2022-09-20T10:33:04.063Z,13.90
2022-09-20T10:36:04.490Z,13.90
2022-09-20T10:38:59.292Z,13.90
2022-09-20T10:42:12.109Z,13.90
2022-09-20T10:45:24.588Z,14.00
2022-09-20T10:48:32.336Z,14.10
2022-09-20T10:51:30.125Z,14.10
2022-09-20T10:54:36.464Z,14.20
2022-09-20T10:57:47.668Z,14.20
2022-09-20T11:00:50.080Z,14.20
2022-09-20T11:03:56.710Z,14.20
2022-09-20T11:06:55.829Z,14.20
2022-09-20T11:09:51.528Z,14.20
2022-09-20T11:12:44.078Z,14.20
2022-09-20T11:15:39.094Z,14.20
2022-09-20T11:18:36.616Z,14.20
2022-09-20T11:21:32.263Z,14.30
2022-09-20T11:24:34.365Z,14.40
2022-09-20T11:27:30.342Z,14.50
2022-09-20T11:30:24.010Z,14.50
2022-09-20T11:33:23.250Z,14.60
2022-09-20T11:36:26.529Z,14.70
2022-09-20T11:39:22.642Z,14.70
2022-09-20T11:42:19.135Z,14.70
2022-09-20T11:45:10.100Z,14.80
2022-09-20T11:48:02.736Z,14.80
2022-09-20T11:51:16.676Z,14.90
2022-09-20T11:57:07.117Z,15.10
2022-09-20T11:59:59.339Z,15.10
2022-09-20T12:02:52.439Z,15.20
2022-09-20T12:05:44.533Z,15.30
2022-09-20T12:08:36.160Z,15.20
2022-09-20T12:11:34.101Z,15.20
2022-09-20T12:14:26.680Z,15.30
2022-09-20T12:17:45.231Z,15.40
2022-09-20T12:20:57.533Z,15.50
2022-09-20T12:24:02.262Z,15.60
2022-09-20T12:26:57.165Z,15.60
2022-09-20T12:30:17.367Z,15.80
2022-09-20T12:33:06.023Z,15.80
2022-09-20T12:36:00.725Z,15.80
2022-09-20T12:38:57.254Z,15.80
2022-09-20T12:41:49.384Z,15.90
2022-09-20T12:44:42.136Z,15.90
2022-09-20T12:47:34.583Z,15.90
2022-09-20T12:50:38.702Z,15.90
2022-09-20T12:53:26.852Z,15.90
2022-09-20T12:56:22.901Z,15.90
2022-09-20T12:59:25.651Z,15.90
2022-09-20T13:02:44.952Z,16.00
2022-09-20T13:05:34.037Z,16.00
2022-09-20T13:08:28.613Z,16.00
2022-09-20T13:11:22.763Z,16.00
2022-09-20T13:14:17.473Z,16.00
2022-09-20T13:17:31.545Z,16.00
2022-09-20T13:20:25.225Z,16.00
2022-09-20T13:23:22.859Z,16.00
2022-09-20T13:26:17.237Z,16.10
2022-09-20T13:29:11.354Z,16.10
2022-09-20T13:32:19.656Z,16.20
2022-09-20T13:35:24.883Z,16.20
2022-09-20T13:38:23.469Z,16.30
2022-09-20T13:41:15.539Z,16.30
2022-09-20T13:44:06.421Z,16.40
2022-09-20T13:46:56.937Z,16.40
2022-09-20T13:49:47.210Z,16.40
2022-09-20T13:52:38.842Z,16.40
2022-09-20T13:55:32.826Z,16.40
2022-09-20T13:58:27.744Z,16.40
2022-09-20T14:01:28.312Z,16.40
2022-09-20T14:04:19.668Z,16.40
2022-09-20T14:07:11.097Z,16.30
2022-09-20T14:10:02.638Z,16.30
2022-09-20T14:12:53.861Z,16.20
2022-09-20T14:15:48.680Z,16.10
2022-09-20T14:18:45.069Z,16.10
2022-09-20T14:21:36.468Z,16.20
2022-09-20T14:24:33.232Z,16.20
2022-09-20T14:27:24.669Z,16.30
2022-09-20T14:30:32.588Z,16.30
2022-09-20T14:33:26.144Z,16.40
2022-09-20T14:36:18.392Z,16.50
2022-09-20T14:39:17.053Z,16.50
2022-09-20T14:42:07.132Z,16.50
2022-09-20T14:44:58.967Z,16.60
2022-09-20T14:47:58.362Z,16.60
2022-09-20T14:51:10.258Z,16.60
2022-09-20T14:54:28.000Z,16.60
2022-09-20T14:57:17.573Z,16.60
2022-09-20T15:00:11.471Z,16.50
2022-09-20T15:03:20.391Z,16.50
2022-09-20T15:06:14.253Z,16.40
2022-09-20T15:09:04.247Z,16.40
2022-09-20T15:12:10.003Z,16.40
2022-09-20T15:14:59.193Z,16.40
2022-09-20T15:17:49.863Z,16.30
2022-09-20T15:20:40.074Z,16.30
2022-09-20T15:23:31.584Z,16.30
2022-09-20T15:26:24.136Z,16.30
2022-09-20T15:29:19.674Z,16.30
2022-09-20T15:32:12.916Z,16.30
2022-09-20T15:35:02.374Z,16.30
2022-09-20T15:37:52.388Z,16.30
2022-09-20T15:40:46.408Z,16.30
2022-09-20T15:43:36.375Z,16.30
2022-09-20T15:46:29.208Z,16.30
2022-09-20T15:49:19.584Z,16.20
2022-09-20T15:52:12.451Z,16.20
2022-09-20T15:55:04.376Z,16.20
2022-09-20T15:57:56.191Z,16.10
2022-09-20T16:00:46.807Z,16.10
2022-09-20T16:03:39.474Z,16.00
2022-09-20T16:06:29.963Z,15.90
2022-09-20T16:09:20.526Z,15.90
2022-09-20T16:12:10.876Z,15.80
2022-09-20T16:15:02.429Z,15.80
2022-09-20T16:18:07.078Z,15.70
2022-09-20T16:20:56.646Z,15.60
2022-09-20T16:23:49.105Z,15.50
2022-09-20T16:26:37.766Z,15.50
2022-09-20T16:29:32.548Z,15.50
2022-09-20T16:32:23.083Z,15.50
2022-09-20T16:35:11.900Z,15.40
2022-09-20T16:38:01.429Z,15.40
2022-09-20T16:40:53.223Z,15.40
2022-09-20T16:43:43.088Z,15.30
2022-09-20T16:46:37.694Z,15.30
2022-09-20T16:49:30.216Z,15.30
2022-09-20T16:52:19.310Z,15.30
2022-09-20T16:55:10.044Z,15.20
2022-09-20T16:57:59.816Z,15.20
2022-09-20T17:00:48.979Z,15.10
2022-09-20T17:03:39.592Z,15.10
2022-09-20T17:06:31.909Z,15.00
2022-09-20T17:09:21.785Z,15.00
2022-09-20T17:12:14.740Z,14.90
2022-09-20T17:15:04.192Z,14.90
2022-09-20T17:17:53.291Z,14.90
2022-09-20T17:20:43.149Z,14.80
2022-09-20T17:23:35.186Z,14.80
2022-09-20T17:26:27.620Z,14.70
2022-09-20T17:29:18.055Z,14.70
2022-09-20T17:32:08.176Z,14.60
2022-09-20T17:34:58.402Z,14.60
2022-09-20T17:37:47.876Z,14.60
2022-09-20T17:40:38.891Z,14.50
2022-09-20T17:43:30.376Z,14.50
2022-09-20T17:46:23.527Z,14.40
2022-09-20T17:49:14.703Z,14.40
2022-09-20T17:52:08.557Z,14.40
2022-09-20T17:54:58.547Z,14.30
2022-09-20T17:57:49.348Z,14.30
2022-09-20T18:00:39.957Z,14.20
2022-09-20T18:03:30.297Z,14.20
2022-09-20T18:06:21.861Z,14.10
2022-09-20T18:09:13.800Z,14.00
2022-09-20T18:12:03.471Z,14.00
2022-09-20T18:14:58.172Z,14.00
2022-09-20T18:17:51.276Z,13.90
2022-09-20T18:20:43.449Z,13.90
2022-09-20T18:23:33.484Z,13.80
2022-09-20T18:26:24.869Z,13.80
2022-09-20T18:29:18.559Z,13.80
2022-09-20T18:32:09.970Z,13.70
2022-09-20T18:34:59.537Z,13.70
2022-09-20T18:37:49.407Z,13.70
2022-09-20T18:40:39.093Z,13.60
2022-09-20T18:43:30.750Z,13.60
2022-09-20T18:46:24.784Z,13.50
2022-09-20T18:49:18.012Z,13.40
2022-09-20T18:52:07.239Z,13.40
2022-09-20T18:54:57.026Z,13.40
2022-09-20T18:57:47.333Z,13.30
2022-09-20T19:00:37.358Z,13.30
2022-09-20T19:03:36.140Z,13.30
2022-09-20T19:06:33.877Z,13.30
2022-09-20T19:09:31.661Z,13.30
2022-09-20T19:12:27.768Z,13.30
2022-09-20T19:15:34.762Z,13.30
2022-09-20T19:18:37.333Z,13.30
2022-09-20T19:21:33.553Z,13.30
2022-09-20T19:24:34.995Z,13.20
2022-09-20T19:27:25.075Z,13.30
2022-09-20T19:30:19.117Z,13.20
2022-09-20T19:33:16.581Z,13.20
2022-09-20T19:36:07.138Z,13.20
2022-09-20T19:39:07.408Z,13.10
2022-09-20T19:42:04.495Z,13.10
2022-09-20T19:45:03.734Z,13.10
2022-09-20T19:48:03.333Z,13.10
2022-09-20T19:50:55.458Z,13.00
2022-09-20T19:53:44.865Z,13.00
2022-09-20T19:56:49.032Z,13.00
2022-09-20T19:59:40.171Z,13.00
2022-09-20T20:02:30.777Z,13.00
2022-09-20T20:05:25.755Z,12.90
2022-09-20T20:08:20.155Z,13.00
2022-09-20T20:11:20.156Z,12.90
2022-09-20T20:14:23.589Z,12.90
2022-09-20T20:17:24.304Z,12.90
2022-09-20T20:20:20.992Z,12.90
2022-09-20T20:23:33.563Z,12.90
2022-09-20T20:26:25.739Z,12.80
2022-09-20T20:29:16.707Z,12.80
2022-09-20T20:32:06.599Z,12.80
2022-09-20T20:34:56.669Z,12.70
2022-09-20T20:37:47.888Z,12.70
2022-09-20T20:40:37.853Z,12.60
2022-09-20T20:43:29.115Z,12.60
2022-09-20T20:46:21.164Z,12.60
2022-09-20T20:49:10.822Z,12.60
2022-09-20T20:52:00.172Z,12.50
2022-09-20T20:54:49.778Z,12.50
2022-09-20T20:57:38.813Z,12.40
2022-09-20T21:00:29.032Z,12.30
2022-09-20T21:03:20.522Z,12.30
2022-09-20T21:06:11.805Z,12.20
2022-09-20T21:09:01.496Z,12.20
2022-09-20T21:11:50.725Z,12.10
2022-09-20T21:14:39.743Z,12.00
2022-09-20T21:17:33.919Z,12.00
2022-09-20T21:20:27.224Z,11.90
2022-09-20T21:23:16.477Z,11.80
2022-09-20T21:26:09.456Z,11.80
2022-09-20T21:29:01.758Z,11.70
2022-09-20T21:31:51.667Z,11.70
2022-09-20T21:34:41.439Z,11.60
2022-09-20T21:37:32.868Z,11.50
2022-09-20T21:40:24.121Z,11.40
2022-09-20T21:43:14.783Z,11.30
2022-09-20T21:46:04.564Z,11.30
2022-09-20T21:48:54.243Z,11.20
2022-09-20T21:51:45.945Z,11.10
2022-09-20T21:54:38.006Z,11.10
2022-09-20T21:57:27.986Z,11.00
2022-09-20T22:00:17.916Z,10.90
2022-09-20T22:03:07.535Z,10.90
2022-09-20T22:05:57.454Z,10.80
2022-09-20T22:08:51.988Z,10.80
2022-09-20T22:11:45.279Z,10.70
2022-09-20T22:14:35.963Z,10.70
2022-09-20T22:17:25.553Z,10.60
2022-09-20T22:20:15.526Z,10.60
2022-09-20T22:23:05.409Z,10.60
2022-09-20T22:26:02.878Z,10.60
2022-09-20T22:28:55.154Z,10.50
2022-09-20T22:31:46.750Z,10.40
2022-09-20T22:34:35.897Z,10.40
2022-09-20T22:37:25.276Z,10.30
2022-09-20T22:40:14.565Z,10.30
2022-09-20T22:43:04.030Z,10.20
2022-09-20T22:45:55.578Z,10.20
2022-09-20T22:48:47.160Z,10.10
2022-09-20T22:51:36.251Z,10.10
2022-09-20T22:54:25.697Z,10.00
2022-09-20T22:57:14.882Z,10.00
2022-09-20T23:00:05.146Z,9.90
2022-09-20T23:03:00.201Z,9.90
2022-09-20T23:05:49.932Z,9.90
2022-09-20T23:08:39.107Z,9.80
2022-09-20T23:11:29.391Z,9.80
2022-09-20T23:14:21.257Z,9.70
2022-09-20T23:17:10.283Z,9.70
2022-09-20T23:20:01.742Z,9.60
2022-09-20T23:22:51.177Z,9.60
2022-09-20T23:25:41.169Z,9.50
2022-09-20T23:28:30.443Z,9.50
2022-09-20T23:31:21.135Z,9.50
2022-09-20T23:34:11.325Z,9.40
2022-09-20T23:37:02.419Z,9.40
2022-09-20T23:39:52.216Z,9.30
2022-09-20T23:42:42.617Z,9.30
2022-09-20T23:45:32.520Z,9.30
2022-09-20T23:48:22.791Z,9.20
2022-09-20T23:51:14.001Z,9.10
2022-09-20T23:54:05.632Z,9.10
2022-09-20T23:56:54.908Z,9.00
2022-09-20T23:59:44.108Z,9.00
